sensor_id;sensor_type;location;lat;lon;timestamp;pressure;altitude;pressure_sealevel;temperature;humidity
43298;BME280;28892;55.640;37.532;2023-11-19T00:00:50;99583.22;;;-3.25;52.81
43298;BME280;28892;55.640;37.532;2023-11-19T00:03:16;99583.81;;;-3.19;52.72
43298;BME280;28892;55.640;37.532;2023-11-19T00:05:43;99582.81;;;-3.17;52.63
43298;BME280;28892;55.640;37.532;2023-11-19T00:08:09;99581.13;;;-3.18;53.08
43298;BME280;28892;55.640;37.532;2023-11-19T00:10:35;99579.03;;;-3.43;53.33
43298;BME280;28892;55.640;37.532;2023-11-19T00:13:01;99573.25;;;-3.48;53.53
43298;BME280;28892;55.640;37.532;2023-11-19T00:15:28;99577.91;;;-3.71;54.00
43298;BME280;28892;55.640;37.532;2023-11-19T00:17:54;99568.63;;;-3.91;54.69
43298;BME280;28892;55.640;37.532;2023-11-19T00:20:20;99576.06;;;-4.19;55.25
43298;BME280;28892;55.640;37.532;2023-11-19T00:22:47;99566.16;;;-4.11;55.60
43298;BME280;28892;55.640;37.532;2023-11-19T00:25:16;99571.00;;;-4.04;55.61
43298;BME280;28892;55.640;37.532;2023-11-19T00:27:43;99572.84;;;-4.07;55.60
43298;BME280;28892;55.640;37.532;2023-11-19T00:30:12;99568.00;;;-3.97;55.43
43298;BME280;28892;55.640;37.532;2023-11-19T00:32:38;99575.19;;;-4.02;55.48
43298;BME280;28892;55.640;37.532;2023-11-19T00:35:05;99558.50;;;-3.96;55.27
43298;BME280;28892;55.640;37.532;2023-11-19T00:37:32;99567.84;;;-4.10;55.41
43298;BME280;28892;55.640;37.532;2023-11-19T00:39:58;99563.53;;;-4.27;56.06
43298;BME280;28892;55.640;37.532;2023-11-19T00:42:25;99565.19;;;-4.43;56.26
43298;BME280;28892;55.640;37.532;2023-11-19T00:44:51;99561.41;;;-4.54;56.77
43298;BME280;28892;55.640;37.532;2023-11-19T00:47:18;99551.50;;;-4.45;57.00
43298;BME280;28892;55.640;37.532;2023-11-19T00:49:48;99542.59;;;-4.40;56.83
43298;BME280;28892;55.640;37.532;2023-11-19T00:52:16;99546.84;;;-4.56;57.10
43298;BME280;28892;55.640;37.532;2023-11-19T00:54:42;99543.38;;;-4.73;57.42
43298;BME280;28892;55.640;37.532;2023-11-19T00:57:08;99545.81;;;-4.70;57.66
43298;BME280;28892;55.640;37.532;2023-11-19T00:59:34;99546.50;;;-4.49;57.23
43298;BME280;28892;55.640;37.532;2023-11-19T01:01:59;99542.13;;;-4.30;56.87
43298;BME280;28892;55.640;37.532;2023-11-19T01:04:37;99536.22;;;-4.16;56.20
43298;BME280;28892;55.640;37.532;2023-11-19T01:07:04;99538.41;;;-4.09;56.06
43298;BME280;28892;55.640;37.532;2023-11-19T01:09:33;99536.63;;;-4.08;55.86
43298;BME280;28892;55.640;37.532;2023-11-19T01:12:00;99534.94;;;-4.25;56.01
43298;BME280;28892;55.640;37.532;2023-11-19T01:14:26;99534.66;;;-4.37;56.19
43298;BME280;28892;55.640;37.532;2023-11-19T01:16:52;99516.16;;;-4.46;56.31
43298;BME280;28892;55.640;37.532;2023-11-19T01:19:20;99515.47;;;-4.50;56.69
43298;BME280;28892;55.640;37.532;2023-11-19T01:21:46;99516.91;;;-4.44;56.71
43298;BME280;28892;55.640;37.532;2023-11-19T01:24:12;99509.44;;;-4.33;56.47
43298;BME280;28892;55.640;37.532;2023-11-19T01:26:38;99513.69;;;-4.32;56.46
43298;BME280;28892;55.640;37.532;2023-11-19T01:29:04;99501.34;;;-4.27;56.44
43298;BME280;28892;55.640;37.532;2023-11-19T01:31:30;99503.44;;;-4.17;56.33
43298;BME280;28892;55.640;37.532;2023-11-19T01:33:57;99506.31;;;-4.06;56.15
43298;BME280;28892;55.640;37.532;2023-11-19T01:36:22;99518.19;;;-4.02;56.08
43298;BME280;28892;55.640;37.532;2023-11-19T01:38:49;99520.84;;;-4.03;55.84
43298;BME280;28892;55.640;37.532;2023-11-19T01:41:15;99514.84;;;-4.04;55.85
43298;BME280;28892;55.640;37.532;2023-11-19T01:43:41;99509.44;;;-3.99;55.81
43298;BME280;28892;55.640;37.532;2023-11-19T01:46:07;99505.91;;;-3.98;55.94
43298;BME280;28892;55.640;37.532;2023-11-19T01:48:35;99502.84;;;-3.89;55.90
43298;BME280;28892;55.640;37.532;2023-11-19T01:51:01;99502.06;;;-3.91;55.59
43298;BME280;28892;55.640;37.532;2023-11-19T01:53:28;99499.31;;;-3.88;55.23
43298;BME280;28892;55.640;37.532;2023-11-19T01:55:54;99495.06;;;-3.89;55.35
43298;BME280;28892;55.640;37.532;2023-11-19T01:58:22;99489.88;;;-3.89;55.21
43298;BME280;28892;55.640;37.532;2023-11-19T02:00:48;99498.56;;;-3.90;55.08
43298;BME280;28892;55.640;37.532;2023-11-19T02:03:14;99497.22;;;-3.81;54.83
43298;BME280;28892;55.640;37.532;2023-11-19T02:05:40;99496.38;;;-3.66;54.39
43298;BME280;28892;55.640;37.532;2023-11-19T02:08:06;99500.81;;;-3.52;54.17
43298;BME280;28892;55.640;37.532;2023-11-19T02:10:31;99497.63;;;-3.41;53.84
43298;BME280;28892;55.640;37.532;2023-11-19T02:12:57;99507.91;;;-3.39;54.01
43298;BME280;28892;55.640;37.532;2023-11-19T02:15:23;99505.41;;;-3.41;53.94
43298;BME280;28892;55.640;37.532;2023-11-19T02:17:51;99498.19;;;-3.35;53.64
43298;BME280;28892;55.640;37.532;2023-11-19T02:20:18;99492.69;;;-3.29;53.34
43298;BME280;28892;55.640;37.532;2023-11-19T02:22:46;99502.03;;;-3.27;53.39
43298;BME280;28892;55.640;37.532;2023-11-19T02:25:25;99496.84;;;-3.27;53.14
43298;BME280;28892;55.640;37.532;2023-11-19T02:28:01;99497.59;;;-3.25;52.96
43298;BME280;28892;55.640;37.532;2023-11-19T02:30:27;99491.66;;;-3.27;52.91
43298;BME280;28892;55.640;37.532;2023-11-19T02:32:54;99489.22;;;-3.30;52.85
43298;BME280;28892;55.640;37.532;2023-11-19T02:35:23;99493.75;;;-3.33;52.75
43298;BME280;28892;55.640;37.532;2023-11-19T02:37:48;99483.47;;;-3.35;52.71
43298;BME280;28892;55.640;37.532;2023-11-19T02:40:14;99494.75;;;-3.36;52.62
43298;BME280;28892;55.640;37.532;2023-11-19T02:42:40;99491.41;;;-3.38;52.77
43298;BME280;28892;55.640;37.532;2023-11-19T02:45:06;99491.25;;;-3.35;52.65
43298;BME280;28892;55.640;37.532;2023-11-19T02:47:33;99484.22;;;-3.33;52.60
43298;BME280;28892;55.640;37.532;2023-11-19T02:49:59;99486.72;;;-3.31;52.61
43298;BME280;28892;55.640;37.532;2023-11-19T02:52:25;99484.03;;;-3.30;52.52
43298;BME280;28892;55.640;37.532;2023-11-19T02:54:51;99486.63;;;-3.30;52.49
43298;BME280;28892;55.640;37.532;2023-11-19T02:57:16;99496.03;;;-3.27;52.52
43298;BME280;28892;55.640;37.532;2023-11-19T02:59:44;99488.22;;;-3.27;52.48
43298;BME280;28892;55.640;37.532;2023-11-19T03:02:10;99497.59;;;-3.25;52.31
43298;BME280;28892;55.640;37.532;2023-11-19T03:04:41;99494.59;;;-3.33;52.75
43298;BME280;28892;55.640;37.532;2023-11-19T03:07:09;99489.75;;;-3.39;52.95
43298;BME280;28892;55.640;37.532;2023-11-19T03:09:34;99478.38;;;-3.37;52.75
43298;BME280;28892;55.640;37.532;2023-11-19T03:12:06;99479.03;;;-3.33;52.59
43298;BME280;28892;55.640;37.532;2023-11-19T03:14:33;99476.44;;;-3.33;52.78
43298;BME280;28892;55.640;37.532;2023-11-19T03:16:59;99475.03;;;-3.39;52.83
43298;BME280;28892;55.640;37.532;2023-11-19T03:19:25;99474.94;;;-3.37;52.67
43298;BME280;28892;55.640;37.532;2023-11-19T03:21:52;99477.44;;;-3.35;52.63
43298;BME280;28892;55.640;37.532;2023-11-19T03:24:19;99473.09;;;-3.35;52.75
43298;BME280;28892;55.640;37.532;2023-11-19T03:26:48;99466.06;;;-3.33;52.71
43298;BME280;28892;55.640;37.532;2023-11-19T03:29:15;99477.00;;;-3.28;52.58
43298;BME280;28892;55.640;37.532;2023-11-19T03:31:44;99470.81;;;-3.25;52.34
43298;BME280;28892;55.640;37.532;2023-11-19T03:34:12;99473.34;;;-3.24;52.43
43298;BME280;28892;55.640;37.532;2023-11-19T03:36:38;99469.63;;;-3.19;52.16
43298;BME280;28892;55.640;37.532;2023-11-19T03:39:03;99474.56;;;-3.15;52.19
43298;BME280;28892;55.640;37.532;2023-11-19T03:41:29;99462.25;;;-3.11;52.00
43298;BME280;28892;55.640;37.532;2023-11-19T03:43:54;99463.06;;;-3.11;51.71
43298;BME280;28892;55.640;37.532;2023-11-19T03:46:20;99474.81;;;-3.19;51.58
43298;BME280;28892;55.640;37.532;2023-11-19T03:48:46;99463.47;;;-3.33;51.50
43298;BME280;28892;55.640;37.532;2023-11-19T03:51:12;99465.84;;;-3.44;51.54
43298;BME280;28892;55.640;37.532;2023-11-19T03:53:46;99468.72;;;-3.81;52.93
43298;BME280;28892;55.640;37.532;2023-11-19T03:56:12;99468.22;;;-3.88;53.54
43298;BME280;28892;55.640;37.532;2023-11-19T03:58:38;99457.34;;;-3.95;53.72
43298;BME280;28892;55.640;37.532;2023-11-19T04:01:13;99456.00;;;-3.86;52.97
43298;BME280;28892;55.640;37.532;2023-11-19T04:03:39;99441.44;;;-3.72;52.65
43298;BME280;28892;55.640;37.532;2023-11-19T04:06:05;99437.41;;;-3.62;52.25
43298;BME280;28892;55.640;37.532;2023-11-19T04:08:30;99434.88;;;-3.63;52.20
43298;BME280;28892;55.640;37.532;2023-11-19T04:10:56;99430.47;;;-3.61;52.18
43298;BME280;28892;55.640;37.532;2023-11-19T04:13:22;99432.03;;;-3.59;52.29
43298;BME280;28892;55.640;37.532;2023-11-19T04:15:49;99426.84;;;-3.59;52.23
43298;BME280;28892;55.640;37.532;2023-11-19T04:18:15;99428.59;;;-3.43;51.87
43298;BME280;28892;55.640;37.532;2023-11-19T04:20:41;99423.41;;;-3.43;51.74
43298;BME280;28892;55.640;37.532;2023-11-19T04:23:08;99422.66;;;-3.45;51.81
43298;BME280;28892;55.640;37.532;2023-11-19T04:25:34;99413.97;;;-3.44;51.90
43298;BME280;28892;55.640;37.532;2023-11-19T04:28:00;99415.34;;;-3.69;52.89
43298;BME280;28892;55.640;37.532;2023-11-19T04:30:25;99419.28;;;-4.10;54.04
43298;BME280;28892;55.640;37.532;2023-11-19T04:32:51;99426.25;;;-4.11;54.20
43298;BME280;28892;55.640;37.532;2023-11-19T04:35:17;99425.47;;;-3.97;53.62
43298;BME280;28892;55.640;37.532;2023-11-19T04:37:42;99428.84;;;-3.79;52.96
43298;BME280;28892;55.640;37.532;2023-11-19T04:40:08;99426.56;;;-3.85;53.47
43298;BME280;28892;55.640;37.532;2023-11-19T04:42:35;99432.19;;;-3.93;54.22
43298;BME280;28892;55.640;37.532;2023-11-19T04:45:00;99433.50;;;-3.85;53.78
43298;BME280;28892;55.640;37.532;2023-11-19T04:47:26;99445.78;;;-4.21;55.68
43298;BME280;28892;55.640;37.532;2023-11-19T04:49:51;99448.28;;;-4.19;56.05
43298;BME280;28892;55.640;37.532;2023-11-19T04:52:17;99438.59;;;-4.16;56.10
43298;BME280;28892;55.640;37.532;2023-11-19T04:54:42;99429.59;;;-3.93;54.65
43298;BME280;28892;55.640;37.532;2023-11-19T04:57:11;99435.44;;;-3.73;53.81
43298;BME280;28892;55.640;37.532;2023-11-19T04:59:37;99428.84;;;-3.48;52.92
43298;BME280;28892;55.640;37.532;2023-11-19T05:02:03;99426.28;;;-3.48;52.74
43298;BME280;28892;55.640;37.532;2023-11-19T05:04:29;99427.50;;;-3.39;52.70
43298;BME280;28892;55.640;37.532;2023-11-19T05:06:55;99434.94;;;-3.33;52.39
43298;BME280;28892;55.640;37.532;2023-11-19T05:09:20;99436.16;;;-3.24;52.17
43298;BME280;28892;55.640;37.532;2023-11-19T05:11:46;99443.38;;;-3.29;52.25
43298;BME280;28892;55.640;37.532;2023-11-19T05:14:11;99445.72;;;-3.25;52.31
43298;BME280;28892;55.640;37.532;2023-11-19T05:16:39;99438.94;;;-3.27;52.31
43298;BME280;28892;55.640;37.532;2023-11-19T05:19:06;99437.16;;;-3.27;52.36
43298;BME280;28892;55.640;37.532;2023-11-19T05:21:32;99442.00;;;-3.20;52.46
43298;BME280;28892;55.640;37.532;2023-11-19T05:23:59;99448.91;;;-3.35;52.82
43298;BME280;28892;55.640;37.532;2023-11-19T05:26:25;99451.03;;;-3.58;53.91
43298;BME280;28892;55.640;37.532;2023-11-19T05:28:51;99451.53;;;-3.52;53.53
43298;BME280;28892;55.640;37.532;2023-11-19T05:31:17;99452.44;;;-3.37;53.12
43298;BME280;28892;55.640;37.532;2023-11-19T05:33:43;99449.56;;;-3.32;52.87
43298;BME280;28892;55.640;37.532;2023-11-19T05:36:10;99455.47;;;-3.44;53.20
43298;BME280;28892;55.640;37.532;2023-11-19T05:38:36;99455.31;;;-3.73;54.07
43298;BME280;28892;55.640;37.532;2023-11-19T05:41:04;99451.13;;;-3.60;53.71
43298;BME280;28892;55.640;37.532;2023-11-19T05:43:30;99455.22;;;-3.56;53.29
43298;BME280;28892;55.640;37.532;2023-11-19T05:45:56;99447.75;;;-3.46;53.23
43298;BME280;28892;55.640;37.532;2023-11-19T05:48:22;99439.69;;;-3.25;52.83
43298;BME280;28892;55.640;37.532;2023-11-19T05:50:48;99442.97;;;-3.07;52.69
43298;BME280;28892;55.640;37.532;2023-11-19T05:53:15;99450.50;;;-3.33;52.30
43298;BME280;28892;55.640;37.532;2023-11-19T05:55:41;99444.53;;;-3.19;52.66
43298;BME280;28892;55.640;37.532;2023-11-19T05:58:14;99440.22;;;-2.89;52.06
43298;BME280;28892;55.640;37.532;2023-11-19T06:00:40;99437.44;;;-2.72;51.40
43298;BME280;28892;55.640;37.532;2023-11-19T06:03:08;99445.63;;;-2.63;51.01
43298;BME280;28892;55.640;37.532;2023-11-19T06:05:34;99441.53;;;-2.82;51.18
43298;BME280;28892;55.640;37.532;2023-11-19T06:08:00;99434.22;;;-3.20;50.35
43298;BME280;28892;55.640;37.532;2023-11-19T06:10:26;99435.22;;;-3.23;51.43
43298;BME280;28892;55.640;37.532;2023-11-19T06:12:59;99442.97;;;-3.07;51.76
43298;BME280;28892;55.640;37.532;2023-11-19T06:15:28;99439.00;;;-3.59;51.96
43298;BME280;28892;55.640;37.532;2023-11-19T06:17:54;99438.41;;;-3.81;53.21
43298;BME280;28892;55.640;37.532;2023-11-19T06:20:25;99438.09;;;-3.74;52.97
43298;BME280;28892;55.640;37.532;2023-11-19T06:22:50;99437.47;;;-3.47;52.91
43298;BME280;28892;55.640;37.532;2023-11-19T06:25:16;99440.09;;;-3.02;52.21
43298;BME280;28892;55.640;37.532;2023-11-19T06:27:42;99439.50;;;-2.91;51.64
43298;BME280;28892;55.640;37.532;2023-11-19T06:30:08;99429.66;;;-2.86;51.59
43298;BME280;28892;55.640;37.532;2023-11-19T06:32:34;99431.72;;;-2.77;51.46
43298;BME280;28892;55.640;37.532;2023-11-19T06:35:00;99427.72;;;-2.83;51.39
43298;BME280;28892;55.640;37.532;2023-11-19T06:37:26;99433.09;;;-2.86;51.74
43298;BME280;28892;55.640;37.532;2023-11-19T06:39:55;99435.03;;;-2.89;51.82
43298;BME280;28892;55.640;37.532;2023-11-19T06:42:21;99435.78;;;-2.87;52.02
43298;BME280;28892;55.640;37.532;2023-11-19T06:44:47;99431.50;;;-2.88;51.85
43298;BME280;28892;55.640;37.532;2023-11-19T06:47:13;99423.00;;;-2.76;52.02
43298;BME280;28892;55.640;37.532;2023-11-19T06:49:39;99421.88;;;-2.72;51.98
43298;BME280;28892;55.640;37.532;2023-11-19T06:52:05;99422.44;;;-3.26;53.28
43298;BME280;28892;55.640;37.532;2023-11-19T06:54:31;99423.22;;;-4.19;55.97
43298;BME280;28892;55.640;37.532;2023-11-19T06:56:57;99430.44;;;-4.58;58.52
43298;BME280;28892;55.640;37.532;2023-11-19T06:59:23;99431.06;;;-4.37;58.26
43298;BME280;28892;55.640;37.532;2023-11-19T07:01:49;99435.84;;;-4.63;59.13
43298;BME280;28892;55.640;37.532;2023-11-19T07:04:14;99433.91;;;-4.25;58.75
43298;BME280;28892;55.640;37.532;2023-11-19T07:06:41;99438.41;;;-4.13;58.61
43298;BME280;28892;55.640;37.532;2023-11-19T07:09:06;99437.09;;;-4.36;58.77
43298;BME280;28892;55.640;37.532;2023-11-19T07:11:38;99431.50;;;-3.96;57.16
43298;BME280;28892;55.640;37.532;2023-11-19T07:14:05;99432.22;;;-3.62;55.78
43298;BME280;28892;55.640;37.532;2023-11-19T07:16:32;99429.69;;;-3.47;55.33
43298;BME280;28892;55.640;37.532;2023-11-19T07:19:03;99430.03;;;-3.23;54.58
43298;BME280;28892;55.640;37.532;2023-11-19T07:21:30;99434.09;;;-3.03;54.05
43298;BME280;28892;55.640;37.532;2023-11-19T07:23:56;99428.97;;;-3.04;53.91
43298;BME280;28892;55.640;37.532;2023-11-19T07:26:22;99430.94;;;-2.93;53.66
43298;BME280;28892;55.640;37.532;2023-11-19T07:28:48;99432.00;;;-3.73;55.29
43298;BME280;28892;55.640;37.532;2023-11-19T07:31:14;99436.31;;;-4.72;59.11
43298;BME280;28892;55.640;37.532;2023-11-19T07:33:40;99432.19;;;-5.10;60.25
43298;BME280;28892;55.640;37.532;2023-11-19T07:36:08;99433.91;;;-4.75;59.32
43298;BME280;28892;55.640;37.532;2023-11-19T07:38:34;99425.41;;;-5.12;59.86
43298;BME280;28892;55.640;37.532;2023-11-19T07:41:00;99426.56;;;-5.36;60.51
43298;BME280;28892;55.640;37.532;2023-11-19T07:43:26;99431.88;;;-5.03;60.21
43298;BME280;28892;55.640;37.532;2023-11-19T07:45:52;99426.66;;;-4.68;59.54
43298;BME280;28892;55.640;37.532;2023-11-19T07:48:19;99425.84;;;-4.53;59.25
43298;BME280;28892;55.640;37.532;2023-11-19T07:50:49;99432.22;;;-4.76;59.28
43298;BME280;28892;55.640;37.532;2023-11-19T07:53:18;99442.16;;;-5.37;60.40
43298;BME280;28892;55.640;37.532;2023-11-19T07:55:43;99433.50;;;-5.19;61.22
43298;BME280;28892;55.640;37.532;2023-11-19T07:58:12;99423.06;;;-5.35;61.05
43298;BME280;28892;55.640;37.532;2023-11-19T08:00:38;99429.47;;;-5.24;61.10
43298;BME280;28892;55.640;37.532;2023-11-19T08:03:06;99424.19;;;-5.58;61.74
43298;BME280;28892;55.640;37.532;2023-11-19T08:05:31;99418.25;;;-5.60;62.77
43298;BME280;28892;55.640;37.532;2023-11-19T08:07:57;99410.34;;;-4.86;61.81
43298;BME280;28892;55.640;37.532;2023-11-19T08:10:23;99409.50;;;-4.53;60.02
43298;BME280;28892;55.640;37.532;2023-11-19T08:12:49;99400.47;;;-4.46;59.29
43298;BME280;28892;55.640;37.532;2023-11-19T08:15:15;99421.22;;;-5.50;60.69
43298;BME280;28892;55.640;37.532;2023-11-19T08:17:42;99414.25;;;-4.79;61.21
43298;BME280;28892;55.640;37.532;2023-11-19T08:20:08;99410.16;;;-4.50;59.70
43298;BME280;28892;55.640;37.532;2023-11-19T08:22:37;99404.09;;;-4.32;58.85
43298;BME280;28892;55.640;37.532;2023-11-19T08:25:04;99396.28;;;-4.65;58.95
43298;BME280;28892;55.640;37.532;2023-11-19T08:27:30;99401.06;;;-4.25;58.85
43298;BME280;28892;55.640;37.532;2023-11-19T08:29:56;99395.38;;;-3.22;58.39
43298;BME280;28892;55.640;37.532;2023-11-19T08:32:25;99399.50;;;-3.18;55.21
43298;BME280;28892;55.640;37.532;2023-11-19T08:34:51;99394.59;;;-3.69;54.91
43298;BME280;28892;55.640;37.532;2023-11-19T08:37:17;99404.75;;;-3.97;55.53
43298;BME280;28892;55.640;37.532;2023-11-19T08:39:48;99398.53;;;-3.78;55.95
43298;BME280;28892;55.640;37.532;2023-11-19T08:42:14;99402.66;;;-3.90;55.61
43298;BME280;28892;55.640;37.532;2023-11-19T08:44:40;99402.00;;;-5.27;63.61
43298;BME280;28892;55.640;37.532;2023-11-19T08:47:09;99403.66;;;-4.74;64.93
43298;BME280;28892;55.640;37.532;2023-11-19T08:49:36;99402.19;;;-4.63;58.11
43298;BME280;28892;55.640;37.532;2023-11-19T08:52:02;99408.75;;;-5.07;58.82
43298;BME280;28892;55.640;37.532;2023-11-19T08:54:28;99401.13;;;-5.63;59.70
43298;BME280;28892;55.640;37.532;2023-11-19T08:56:54;99417.28;;;-5.57;59.54
43298;BME280;28892;55.640;37.532;2023-11-19T08:59:20;99406.63;;;-5.51;58.71
43298;BME280;28892;55.640;37.532;2023-11-19T09:01:46;99409.75;;;-5.09;57.78
43298;BME280;28892;55.640;37.532;2023-11-19T09:04:11;99395.41;;;-4.99;56.08
43298;BME280;28892;55.640;37.532;2023-11-19T09:06:37;99393.66;;;-4.81;56.26
43298;BME280;28892;55.640;37.532;2023-11-19T09:09:03;99387.69;;;-4.49;55.42
43298;BME280;28892;55.640;37.532;2023-11-19T09:11:31;99387.44;;;-4.44;55.15
43298;BME280;28892;55.640;37.532;2023-11-19T09:13:57;99383.13;;;-4.44;55.20
43298;BME280;28892;55.640;37.532;2023-11-19T09:16:23;99379.22;;;-4.69;55.23
43298;BME280;28892;55.640;37.532;2023-11-19T09:18:50;99379.44;;;-4.73;55.68
43298;BME280;28892;55.640;37.532;2023-11-19T09:21:15;99380.38;;;-4.74;56.03
43298;BME280;28892;55.640;37.532;2023-11-19T09:23:41;99374.38;;;-4.75;55.39
43298;BME280;28892;55.640;37.532;2023-11-19T09:26:10;99368.88;;;-4.04;54.55
43298;BME280;28892;55.640;37.532;2023-11-19T09:28:39;99369.28;;;-3.49;53.05
43298;BME280;28892;55.640;37.532;2023-11-19T09:31:17;99367.22;;;-3.59;53.05
43298;BME280;28892;55.640;37.532;2023-11-19T09:33:44;99363.69;;;-3.58;52.28
43298;BME280;28892;55.640;37.532;2023-11-19T09:36:14;99365.28;;;-3.55;52.09
43298;BME280;28892;55.640;37.532;2023-11-19T09:38:43;99365.31;;;-4.02;52.66
43298;BME280;28892;55.640;37.532;2023-11-19T09:41:11;99349.78;;;-3.71;53.29
43298;BME280;28892;55.640;37.532;2023-11-19T09:43:39;99352.66;;;-4.08;53.23
43298;BME280;28892;55.640;37.532;2023-11-19T09:46:06;99352.13;;;-4.29;53.25
43298;BME280;28892;55.640;37.532;2023-11-19T09:48:33;99361.22;;;-4.22;54.03
43298;BME280;28892;55.640;37.532;2023-11-19T09:51:00;99349.63;;;-3.68;53.16
43298;BME280;28892;55.640;37.532;2023-11-19T09:53:26;99333.56;;;-3.30;52.36
43298;BME280;28892;55.640;37.532;2023-11-19T09:55:52;99333.03;;;-3.20;51.94
43298;BME280;28892;55.640;37.532;2023-11-19T09:58:18;99336.63;;;-3.38;51.71
43298;BME280;28892;55.640;37.532;2023-11-19T10:00:45;99336.56;;;-3.21;51.25
43298;BME280;28892;55.640;37.532;2023-11-19T10:03:13;99323.78;;;-3.10;51.17
43298;BME280;28892;55.640;37.532;2023-11-19T10:05:39;99313.75;;;-2.87;50.49
43298;BME280;28892;55.640;37.532;2023-11-19T10:08:06;99314.59;;;-2.87;50.51
43298;BME280;28892;55.640;37.532;2023-11-19T10:10:34;99308.75;;;-3.05;50.19
43298;BME280;28892;55.640;37.532;2023-11-19T10:13:02;99310.44;;;-2.89;50.37
43298;BME280;28892;55.640;37.532;2023-11-19T10:15:31;99319.88;;;-2.74;49.88
43298;BME280;28892;55.640;37.532;2023-11-19T10:18:00;99316.22;;;-2.57;50.43
43298;BME280;28892;55.640;37.532;2023-11-19T10:20:26;99314.91;;;-2.49;50.78
43298;BME280;28892;55.640;37.532;2023-11-19T10:22:52;99313.13;;;-2.34;50.69
43298;BME280;28892;55.640;37.532;2023-11-19T10:25:24;99315.28;;;-2.41;51.16
43298;BME280;28892;55.640;37.532;2023-11-19T10:27:50;99302.03;;;-2.23;51.55
43298;BME280;28892;55.640;37.532;2023-11-19T10:30:24;99313.56;;;-2.00;51.87
43298;BME280;28892;55.640;37.532;2023-11-19T10:33:07;99301.31;;;-2.26;49.92
43298;BME280;28892;55.640;37.532;2023-11-19T10:38:36;99314.88;;;-3.20;51.71
43298;BME280;28892;55.640;37.532;2023-11-19T10:41:05;99313.66;;;-2.71;51.10
43298;BME280;28892;55.640;37.532;2023-11-19T10:44:11;99313.50;;;-2.41;50.18
43298;BME280;28892;55.640;37.532;2023-11-19T10:46:39;99304.75;;;-2.25;48.79
43298;BME280;28892;55.640;37.532;2023-11-19T10:49:09;99306.66;;;-2.14;48.00
43298;BME280;28892;55.640;37.532;2023-11-19T10:51:36;99299.88;;;-2.17;49.09
43298;BME280;28892;55.640;37.532;2023-11-19T10:54:03;99304.41;;;-2.06;48.94
43298;BME280;28892;55.640;37.532;2023-11-19T10:56:33;99307.03;;;-1.93;49.25
43298;BME280;28892;55.640;37.532;2023-11-19T10:59:02;99307.06;;;-1.80;49.13
43298;BME280;28892;55.640;37.532;2023-11-19T11:01:35;99301.06;;;-1.55;48.89
43298;BME280;28892;55.640;37.532;2023-11-19T11:04:28;99303.91;;;-1.45;49.30
43298;BME280;28892;55.640;37.532;2023-11-19T11:36:52;99297.06;;;-3.27;49.14
43298;BME280;28892;55.640;37.532;2023-11-19T11:39:21;99292.22;;;-2.75;49.22
43298;BME280;28892;55.640;37.532;2023-11-19T11:41:47;99288.25;;;-2.39;47.53
43298;BME280;28892;55.640;37.532;2023-11-19T11:45:21;99298.03;;;-2.42;47.91
43298;BME280;28892;55.640;37.532;2023-11-19T11:47:22;99287.94;;;-2.47;47.78
43298;BME280;28892;55.640;37.532;2023-11-19T11:49:51;99289.75;;;-2.34;48.03
43298;BME280;28892;55.640;37.532;2023-11-19T11:52:21;99301.47;;;-3.88;49.24
43298;BME280;28892;55.640;37.532;2023-11-19T11:54:47;99295.28;;;-4.16;50.08
43298;BME280;28892;55.640;37.532;2023-11-19T11:57:13;99300.34;;;-3.99;50.71
43298;BME280;28892;55.640;37.532;2023-11-19T11:59:45;99300.44;;;-4.00;50.42
43298;BME280;28892;55.640;37.532;2023-11-19T12:02:18;99293.00;;;-4.07;50.60
43298;BME280;28892;55.640;37.532;2023-11-19T12:04:49;99291.94;;;-4.35;50.54
43298;BME280;28892;55.640;37.532;2023-11-19T12:07:31;99289.56;;;-4.07;50.63
43298;BME280;28892;55.640;37.532;2023-11-19T12:10:19;99294.78;;;-3.76;50.24
43298;BME280;28892;55.640;37.532;2023-11-19T12:12:47;99294.41;;;-3.70;50.04
43298;BME280;28892;55.640;37.532;2023-11-19T12:15:14;99293.31;;;-3.66;50.15
43298;BME280;28892;55.640;37.532;2023-11-19T12:17:41;99289.16;;;-3.99;49.55
43298;BME280;28892;55.640;37.532;2023-11-19T12:20:10;99285.16;;;-4.05;50.14
43298;BME280;28892;55.640;37.532;2023-11-19T12:22:51;99286.50;;;-4.94;51.19
43298;BME280;28892;55.640;37.532;2023-11-19T12:25:20;99280.78;;;-4.51;51.74
43298;BME280;28892;55.640;37.532;2023-11-19T12:27:46;99277.69;;;-4.42;51.46
43298;BME280;28892;55.640;37.532;2023-11-19T12:30:19;99281.28;;;-4.44;50.99
43298;BME280;28892;55.640;37.532;2023-11-19T12:32:47;99269.81;;;-4.56;51.83
43298;BME280;28892;55.640;37.532;2023-11-19T12:35:13;99272.94;;;-4.50;52.02
43298;BME280;28892;55.640;37.532;2023-11-19T12:37:50;99272.41;;;-4.72;52.51
43298;BME280;28892;55.640;37.532;2023-11-19T12:40:24;99271.00;;;-4.46;52.62
43298;BME280;28892;55.640;37.532;2023-11-19T12:42:50;99266.31;;;-3.93;51.92
43298;BME280;28892;55.640;37.532;2023-11-19T12:45:19;99262.41;;;-3.85;50.20
43298;BME280;28892;55.640;37.532;2023-11-19T12:47:46;99261.63;;;-4.16;51.25
43298;BME280;28892;55.640;37.532;2023-11-19T12:50:14;99253.25;;;-3.91;51.26
43298;BME280;28892;55.640;37.532;2023-11-19T12:52:56;99257.22;;;-3.85;50.54
43298;BME280;28892;55.640;37.532;2023-11-19T12:55:29;99257.13;;;-4.45;52.00
43298;BME280;28892;55.640;37.532;2023-11-19T12:57:56;99253.72;;;-4.45;52.05
43298;BME280;28892;55.640;37.532;2023-11-19T13:00:22;99249.69;;;-4.35;52.05
43298;BME280;28892;55.640;37.532;2023-11-19T13:02:53;99238.72;;;-4.24;51.76
43298;BME280;28892;55.640;37.532;2023-11-19T13:05:33;99244.97;;;-4.59;52.21
43298;BME280;28892;55.640;37.532;2023-11-19T13:08:00;99254.16;;;-4.85;53.58
43298;BME280;28892;55.640;37.532;2023-11-19T13:10:26;99231.75;;;-4.54;53.52
43298;BME280;28892;55.640;37.532;2023-11-19T13:12:59;99235.69;;;-4.79;53.30
43298;BME280;28892;55.640;37.532;2023-11-19T13:15:25;99230.84;;;-4.53;53.14
43298;BME280;28892;55.640;37.532;2023-11-19T13:17:51;99229.81;;;-4.51;52.85
43298;BME280;28892;55.640;37.532;2023-11-19T13:20:18;99233.66;;;-4.42;52.52
43298;BME280;28892;55.640;37.532;2023-11-19T13:23:00;99228.16;;;-4.52;52.87
43298;BME280;28892;55.640;37.532;2023-11-19T13:25:27;99224.16;;;-4.57;53.20